createdAt,value
2023-12-24T00:00:27.855Z,100.00
2023-12-24T00:02:56.700Z,100.00
2023-12-24T00:05:24.351Z,100.00
2023-12-24T00:07:51.072Z,100.00
2023-12-24T00:10:17.718Z,100.00
2023-12-24T00:12:44.491Z,100.00
2023-12-24T00:15:11.279Z,100.00
2023-12-24T00:17:38.146Z,100.00
2023-12-24T00:20:05.234Z,100.00
2023-12-24T00:22:32.840Z,100.00
2023-12-24T00:24:59.490Z,100.00
2023-12-24T00:27:26.214Z,100.00
2023-12-24T00:29:52.853Z,100.00
2023-12-24T00:32:21.105Z,100.00
2023-12-24T00:34:47.877Z,100.00
2023-12-24T00:37:14.628Z,100.00
2023-12-24T00:39:41.292Z,100.00
2023-12-24T00:42:08.004Z,100.00
2023-12-24T00:44:34.747Z,100.00
2023-12-24T00:47:01.475Z,100.00
2023-12-24T00:49:30.274Z,100.00
2023-12-24T00:51:58.090Z,100.00
2023-12-24T00:54:24.815Z,100.00
2023-12-24T00:56:51.550Z,100.00
2023-12-24T00:59:18.267Z,100.00
2023-12-24T01:01:44.971Z,100.00
2023-12-24T01:04:11.725Z,100.00
2023-12-24T01:06:38.485Z,100.00
2023-12-24T01:09:05.137Z,100.00
2023-12-24T01:11:31.969Z,100.00
2023-12-24T01:13:59.038Z,100.00
2023-12-24T01:16:25.801Z,100.00
2023-12-24T01:18:53.056Z,100.00
2023-12-24T01:21:19.904Z,100.00
2023-12-24T01:23:46.607Z,100.00
2023-12-24T01:26:13.751Z,100.00
2023-12-24T01:28:41.769Z,100.00
2023-12-24T01:31:08.760Z,100.00
2023-12-24T01:33:37.060Z,100.00
2023-12-24T01:36:03.866Z,100.00
2023-12-24T01:38:34.338Z,100.00
2023-12-24T01:41:01.287Z,100.00
2023-12-24T01:43:27.927Z,100.00
2023-12-24T01:45:54.950Z,100.00
2023-12-24T01:48:22.485Z,100.00
2023-12-24T01:50:49.656Z,100.00
2023-12-24T01:53:17.547Z,100.00
2023-12-24T01:55:45.206Z,100.00
2023-12-24T01:58:11.930Z,100.00
2023-12-24T02:00:38.897Z,100.00
2023-12-24T02:03:05.687Z,100.00
2023-12-24T02:05:32.562Z,100.00
2023-12-24T02:07:59.905Z,100.00
2023-12-24T02:10:27.185Z,100.00
2023-12-24T02:12:54.112Z,100.00
2023-12-24T02:15:20.910Z,100.00
2023-12-24T02:17:47.773Z,100.00
2023-12-24T02:20:14.657Z,100.00
2023-12-24T02:22:41.325Z,100.00
2023-12-24T02:25:08.309Z,100.00
2023-12-24T02:27:40.762Z,100.00
2023-12-24T02:30:12.075Z,100.00
2023-12-24T02:32:40.528Z,100.00
2023-12-24T02:35:08.571Z,100.00
2023-12-24T02:37:35.868Z,100.00
2023-12-24T02:40:02.495Z,100.00
2023-12-24T02:42:29.275Z,100.00
2023-12-24T02:44:55.979Z,100.00
2023-12-24T02:47:22.811Z,100.00
2023-12-24T02:49:50.358Z,100.00
2023-12-24T02:52:17.075Z,100.00
2023-12-24T02:54:43.723Z,100.00
2023-12-24T02:57:10.436Z,100.00
2023-12-24T02:59:37.180Z,100.00
2023-12-24T03:02:04.215Z,100.00
2023-12-24T03:04:30.970Z,100.00
2023-12-24T03:06:57.670Z,100.00
2023-12-24T03:09:24.334Z,100.00
2023-12-24T03:11:51.889Z,100.00
2023-12-24T03:14:18.583Z,100.00
2023-12-24T03:16:45.328Z,100.00
2023-12-24T03:19:12.169Z,100.00
2023-12-24T03:21:45.108Z,100.00
2023-12-24T03:24:11.913Z,100.00
2023-12-24T03:26:38.748Z,100.00
2023-12-24T03:29:07.536Z,100.00
2023-12-24T03:31:34.310Z,100.00
2023-12-24T03:34:01.036Z,100.00
2023-12-24T03:36:27.734Z,100.00
2023-12-24T03:38:54.511Z,100.00
2023-12-24T03:41:21.765Z,100.00
2023-12-24T03:43:48.483Z,100.00
2023-12-24T03:46:18.711Z,100.00
2023-12-24T03:48:45.488Z,100.00
2023-12-24T03:51:12.678Z,100.00
2023-12-24T03:53:39.650Z,100.00
2023-12-24T03:56:06.797Z,100.00
2023-12-24T03:58:33.534Z,100.00
2023-12-24T04:01:00.347Z,100.00
2023-12-24T04:03:27.099Z,100.00
2023-12-24T04:05:53.828Z,100.00
2023-12-24T04:08:21.178Z,100.00
2023-12-24T04:10:47.829Z,100.00
2023-12-24T04:13:15.229Z,100.00
2023-12-24T04:15:41.996Z,100.00
2023-12-24T04:18:10.358Z,100.00
2023-12-24T04:20:37.409Z,100.00
2023-12-24T04:23:04.295Z,100.00
2023-12-24T04:25:31.952Z,100.00
2023-12-24T04:27:58.636Z,100.00
2023-12-24T04:30:25.464Z,100.00
2023-12-24T04:32:52.698Z,100.00
2023-12-24T04:35:19.602Z,100.00
2023-12-24T04:37:46.824Z,100.00
2023-12-24T04:40:13.705Z,100.00
2023-12-24T04:42:40.458Z,100.00
2023-12-24T04:45:07.744Z,100.00
2023-12-24T04:47:34.545Z,100.00
2023-12-24T04:50:01.520Z,100.00
2023-12-24T04:52:28.648Z,100.00
2023-12-24T04:54:55.290Z,100.00
2023-12-24T04:57:22.112Z,100.00
2023-12-24T04:59:48.827Z,100.00
2023-12-24T05:02:15.583Z,100.00
2023-12-24T05:04:44.285Z,100.00
2023-12-24T05:07:11.110Z,100.00
2023-12-24T05:09:39.690Z,100.00
2023-12-24T05:12:06.654Z,100.00
2023-12-24T05:14:34.690Z,100.00
2023-12-24T05:17:01.765Z,100.00
2023-12-24T05:19:28.539Z,100.00
2023-12-24T05:21:55.573Z,100.00
2023-12-24T05:24:22.316Z,100.00
2023-12-24T05:26:49.028Z,100.00
2023-12-24T05:29:15.762Z,100.00
2023-12-24T05:31:42.746Z,100.00
2023-12-24T05:34:09.844Z,100.00
2023-12-24T05:36:37.114Z,100.00
2023-12-24T05:39:04.941Z,100.00
2023-12-24T05:41:33.683Z,100.00
2023-12-24T05:44:00.580Z,100.00
2023-12-24T05:46:27.364Z,100.00
2023-12-24T05:48:54.076Z,100.00
2023-12-24T05:51:20.937Z,100.00
2023-12-24T05:53:47.585Z,100.00
2023-12-24T05:56:14.309Z,100.00
2023-12-24T05:58:41.026Z,100.00
2023-12-24T06:01:07.806Z,100.00
2023-12-24T06:03:34.599Z,100.00
2023-12-24T06:06:01.487Z,100.00
2023-12-24T06:08:28.269Z,100.00
2023-12-24T06:10:55.010Z,100.00
2023-12-24T06:13:21.676Z,100.00
2023-12-24T06:15:48.358Z,100.00
2023-12-24T06:18:15.206Z,100.00
2023-12-24T06:20:42.192Z,100.00
2023-12-24T06:23:08.894Z,100.00
2023-12-24T06:25:37.875Z,100.00
2023-12-24T06:28:05.720Z,100.00
2023-12-24T06:30:32.559Z,100.00
2023-12-24T06:32:59.347Z,100.00
2023-12-24T06:35:26.455Z,100.00
2023-12-24T06:37:53.214Z,100.00
2023-12-24T06:40:19.940Z,100.00
2023-12-24T06:42:46.634Z,100.00
2023-12-24T06:45:13.337Z,100.00
2023-12-24T06:47:40.883Z,100.00
2023-12-24T06:50:08.044Z,100.00
2023-12-24T06:52:34.867Z,100.00
2023-12-24T06:55:01.652Z,100.00
2023-12-24T06:57:28.415Z,100.00
2023-12-24T06:59:55.219Z,100.00
2023-12-24T07:02:22.018Z,100.00
2023-12-24T07:04:48.668Z,100.00
2023-12-24T07:07:15.454Z,100.00
2023-12-24T07:09:42.103Z,100.00
2023-12-24T07:12:09.071Z,100.00
2023-12-24T07:14:35.729Z,100.00
2023-12-24T07:17:02.576Z,100.00
2023-12-24T07:19:29.551Z,100.00
2023-12-24T07:21:56.313Z,100.00
2023-12-24T07:24:22.935Z,100.00
2023-12-24T07:26:49.684Z,100.00
2023-12-24T07:29:16.456Z,100.00
2023-12-24T07:31:43.319Z,100.00
2023-12-24T07:34:10.062Z,100.00
2023-12-24T07:36:36.851Z,100.00
2023-12-24T07:39:04.679Z,100.00
2023-12-24T07:41:32.602Z,100.00
2023-12-24T07:44:00.768Z,100.00
2023-12-24T07:46:27.529Z,100.00
2023-12-24T07:48:54.318Z,100.00
2023-12-24T07:51:21.113Z,100.00
2023-12-24T07:53:47.751Z,100.00
2023-12-24T07:56:14.531Z,100.00
2023-12-24T07:58:41.230Z,100.00
2023-12-24T08:01:08.031Z,100.00
2023-12-24T08:03:34.825Z,100.00
2023-12-24T08:06:01.798Z,100.00
2023-12-24T08:08:28.636Z,100.00
2023-12-24T08:10:56.129Z,100.00
2023-12-24T08:13:24.860Z,100.00
2023-12-24T08:15:51.525Z,100.00
2023-12-24T08:18:18.551Z,100.00
2023-12-24T08:20:45.444Z,100.00
2023-12-24T08:23:12.358Z,100.00
2023-12-24T08:25:39.114Z,100.00
2023-12-24T08:28:07.414Z,100.00
2023-12-24T08:30:34.223Z,100.00
2023-12-24T08:33:01.093Z,100.00
2023-12-24T08:35:28.116Z,100.00
2023-12-24T08:37:54.896Z,100.00
2023-12-24T08:40:23.701Z,100.00
2023-12-24T08:42:50.763Z,100.00
2023-12-24T08:45:17.569Z,100.00
2023-12-24T08:47:44.488Z,100.00
2023-12-24T08:50:11.253Z,100.00
2023-12-24T08:52:38.031Z,100.00
2023-12-24T08:55:05.077Z,100.00
2023-12-24T08:57:31.772Z,100.00
2023-12-24T08:59:58.386Z,100.00
2023-12-24T09:02:25.228Z,100.00
2023-12-24T09:04:51.885Z,100.00
2023-12-24T09:07:18.578Z,100.00
2023-12-24T09:09:45.224Z,100.00
2023-12-24T09:12:12.668Z,100.00
2023-12-24T09:14:39.311Z,100.00
2023-12-24T09:17:06.142Z,100.00
2023-12-24T09:19:32.836Z,100.00
2023-12-24T09:21:59.631Z,100.00
2023-12-24T09:24:26.261Z,100.00
2023-12-24T09:26:52.965Z,100.00
2023-12-24T09:29:23.305Z,100.00
2023-12-24T09:31:50.320Z,100.00
2023-12-24T09:34:17.027Z,100.00
2023-12-24T09:36:43.919Z,100.00
2023-12-24T09:39:10.911Z,100.00
2023-12-24T09:41:38.786Z,100.00
2023-12-24T09:44:08.227Z,100.00
2023-12-24T09:46:35.204Z,100.00
2023-12-24T09:49:01.968Z,100.00
2023-12-24T09:51:30.343Z,100.00
2023-12-24T09:53:57.400Z,100.00
2023-12-24T09:56:24.240Z,100.00
2023-12-24T09:58:53.507Z,100.00
2023-12-24T10:01:20.940Z,100.00
2023-12-24T10:03:47.670Z,100.00
2023-12-24T10:06:16.210Z,100.00
2023-12-24T10:08:43.186Z,100.00
2023-12-24T10:11:13.265Z,100.00
2023-12-24T10:13:40.123Z,100.00
2023-12-24T10:16:07.089Z,100.00
2023-12-24T10:18:34.291Z,100.00
2023-12-24T10:21:09.488Z,100.00
2023-12-24T10:23:37.143Z,100.00
2023-12-24T10:26:08.435Z,100.00
2023-12-24T10:28:35.233Z,100.00
2023-12-24T10:31:11.222Z,100.00
2023-12-24T10:33:38.687Z,100.00
2023-12-24T10:36:05.920Z,100.00
2023-12-24T10:38:32.824Z,100.00
2023-12-24T10:40:59.590Z,100.00
2023-12-24T10:43:26.314Z,100.00
2023-12-24T10:45:53.048Z,100.00
2023-12-24T10:48:20.468Z,100.00
2023-12-24T10:50:47.712Z,100.00
2023-12-24T10:53:14.714Z,100.00
2023-12-24T10:55:45.849Z,100.00
2023-12-24T10:58:28.361Z,100.00
2023-12-24T11:01:03.351Z,100.00
2023-12-24T11:03:46.098Z,100.00
2023-12-24T11:06:32.775Z,100.00
2023-12-24T11:08:59.515Z,100.00
2023-12-24T11:11:26.259Z,100.00
2023-12-24T11:13:53.018Z,100.00
2023-12-24T11:16:39.596Z,100.00
2023-12-24T11:19:06.500Z,100.00
2023-12-24T11:21:53.158Z,100.00
2023-12-24T11:24:23.035Z,100.00
2023-12-24T11:26:50.963Z,100.00
2023-12-24T11:29:40.909Z,100.00
2023-12-24T11:32:34.945Z,100.00
2023-12-24T11:35:02.192Z,100.00
2023-12-24T11:37:29.160Z,100.00
2023-12-24T11:40:08.913Z,100.00
2023-12-24T11:42:54.040Z,100.00
2023-12-24T11:45:26.959Z,100.00
2023-12-24T11:47:54.346Z,100.00
2023-12-24T11:50:21.714Z,100.00
2023-12-24T11:52:49.398Z,100.00
2023-12-24T11:55:22.490Z,100.00
2023-12-24T11:57:50.573Z,100.00
2023-12-24T12:00:27.420Z,100.00
2023-12-24T12:02:59.860Z,100.00
2023-12-24T12:05:27.588Z,100.00
2023-12-24T12:07:54.523Z,100.00
2023-12-24T12:10:21.659Z,100.00
2023-12-24T12:12:48.448Z,100.00
2023-12-24T12:15:15.781Z,100.00
2023-12-24T12:17:42.588Z,100.00
2023-12-24T12:20:09.661Z,100.00
2023-12-24T12:22:36.356Z,100.00
2023-12-24T12:25:03.956Z,100.00
2023-12-24T12:27:30.663Z,100.00
2023-12-24T12:29:57.353Z,100.00
2023-12-24T12:32:24.202Z,100.00
2023-12-24T12:34:51.037Z,100.00
2023-12-24T12:37:17.731Z,100.00
2023-12-24T12:39:44.409Z,100.00
2023-12-24T12:42:12.012Z,100.00
2023-12-24T12:44:38.798Z,100.00
2023-12-24T12:47:05.663Z,100.00
2023-12-24T12:49:33.008Z,100.00
2023-12-24T12:51:59.673Z,100.00
2023-12-24T12:54:26.354Z,100.00
2023-12-24T12:56:54.353Z,100.00
2023-12-24T12:59:24.676Z,100.00
2023-12-24T13:01:51.519Z,100.00
2023-12-24T13:04:25.005Z,100.00
2023-12-24T13:06:58.627Z,100.00
2023-12-24T13:09:25.358Z,100.00
2023-12-24T13:11:52.652Z,100.00
2023-12-24T13:14:19.455Z,100.00
2023-12-24T13:16:46.199Z,100.00
2023-12-24T13:19:19.905Z,100.00
2023-12-24T13:21:47.955Z,100.00
2023-12-24T13:24:16.873Z,100.00
2023-12-24T13:26:43.595Z,100.00
2023-12-24T13:29:10.323Z,100.00
2023-12-24T13:31:37.529Z,100.00
2023-12-24T13:34:04.278Z,100.00
2023-12-24T13:36:31.101Z,100.00
2023-12-24T13:38:59.585Z,100.00
2023-12-24T13:41:26.351Z,100.00
2023-12-24T13:43:53.083Z,100.00
2023-12-24T13:46:21.446Z,100.00
2023-12-24T13:48:48.481Z,100.00
2023-12-24T13:51:18.573Z,100.00
2023-12-24T13:53:45.711Z,100.00
2023-12-24T13:56:12.465Z,100.00
2023-12-24T13:58:39.163Z,100.00
2023-12-24T14:01:05.893Z,100.00
2023-12-24T14:03:32.616Z,100.00
2023-12-24T14:06:00.242Z,100.00
2023-12-24T14:08:28.829Z,100.00
2023-12-24T14:10:56.116Z,100.00
2023-12-24T14:13:22.953Z,100.00
2023-12-24T14:15:49.690Z,100.00
2023-12-24T14:18:16.692Z,100.00
2023-12-24T14:20:44.720Z,100.00
2023-12-24T14:23:11.516Z,100.00
2023-12-24T14:25:38.291Z,100.00
2023-12-24T14:28:05.294Z,100.00
2023-12-24T14:30:32.213Z,100.00
2023-12-24T14:32:59.421Z,100.00
2023-12-24T14:35:26.341Z,100.00
2023-12-24T14:37:53.244Z,100.00
2023-12-24T14:40:21.340Z,100.00
2023-12-24T14:42:48.095Z,100.00
2023-12-24T14:45:14.941Z,100.00
2023-12-24T14:47:43.251Z,100.00
2023-12-24T14:50:10.295Z,100.00
2023-12-24T14:52:37.141Z,100.00
2023-12-24T14:55:04.097Z,100.00
2023-12-24T14:57:32.414Z,100.00
2023-12-24T15:00:00.271Z,100.00
2023-12-24T15:02:29.580Z,100.00
2023-12-24T15:04:56.969Z,100.00
2023-12-24T15:07:25.260Z,100.00
2023-12-24T15:09:52.139Z,100.00
2023-12-24T15:12:18.967Z,100.00
2023-12-24T15:14:45.937Z,100.00
2023-12-24T15:17:15.716Z,100.00
2023-12-24T15:19:43.744Z,100.00
2023-12-24T15:22:10.567Z,100.00
2023-12-24T15:24:37.357Z,100.00
2023-12-24T15:27:04.251Z,100.00
2023-12-24T15:29:31.081Z,100.00
2023-12-24T15:31:57.834Z,100.00
2023-12-24T15:34:24.914Z,100.00
2023-12-24T15:36:51.813Z,100.00
2023-12-24T15:39:18.616Z,100.00
2023-12-24T15:41:45.372Z,100.00
2023-12-24T15:44:12.113Z,100.00
2023-12-24T15:46:38.876Z,100.00
2023-12-24T15:49:05.941Z,100.00
2023-12-24T15:51:36.041Z,100.00
2023-12-24T15:54:04.879Z,100.00
2023-12-24T15:56:31.908Z,100.00
2023-12-24T15:58:58.841Z,100.00
2023-12-24T16:01:25.621Z,100.00
2023-12-24T16:03:52.814Z,100.00
2023-12-24T16:06:19.937Z,100.00
2023-12-24T16:08:47.034Z,100.00
2023-12-24T16:11:13.840Z,100.00
2023-12-24T16:13:40.567Z,100.00
2023-12-24T16:16:07.312Z,100.00
2023-12-24T16:18:34.222Z,100.00
2023-12-24T16:21:01.135Z,100.00
2023-12-24T16:23:27.927Z,100.00
2023-12-24T16:25:54.630Z,100.00
2023-12-24T16:28:21.396Z,100.00
2023-12-24T16:30:48.219Z,100.00
2023-12-24T16:33:15.083Z,100.00
2023-12-24T16:35:42.352Z,100.00
2023-12-24T16:38:09.094Z,100.00
2023-12-24T16:40:35.817Z,100.00
2023-12-24T16:43:02.615Z,100.00
2023-12-24T16:45:29.361Z,100.00
2023-12-24T16:47:56.307Z,100.00
2023-12-24T16:50:23.034Z,100.00
2023-12-24T16:52:49.836Z,100.00
2023-12-24T16:55:16.687Z,100.00
2023-12-24T16:57:43.610Z,100.00
2023-12-24T17:00:10.627Z,100.00
2023-12-24T17:02:38.273Z,100.00
2023-12-24T17:05:05.236Z,100.00
2023-12-24T17:07:32.141Z,100.00
2023-12-24T17:10:05.664Z,100.00
2023-12-24T17:12:34.393Z,100.00
2023-12-24T17:15:03.488Z,100.00
2023-12-24T17:17:30.430Z,100.00
2023-12-24T17:19:57.281Z,100.00
2023-12-24T17:22:26.094Z,100.00
2023-12-24T17:24:59.509Z,100.00
2023-12-24T17:27:31.781Z,100.00
2023-12-24T17:29:58.604Z,100.00
2023-12-24T17:32:25.794Z,100.00
2023-12-24T17:34:52.621Z,100.00
2023-12-24T17:37:19.595Z,100.00
2023-12-24T17:39:46.282Z,100.00
2023-12-24T17:42:12.943Z,100.00
2023-12-24T17:44:41.119Z,100.00
2023-12-24T17:47:10.279Z,100.00
2023-12-24T17:49:37.405Z,100.00
2023-12-24T17:52:05.481Z,100.00
2023-12-24T17:54:34.872Z,100.00
2023-12-24T17:57:01.869Z,100.00
2023-12-24T17:59:28.890Z,100.00
2023-12-24T18:01:55.768Z,100.00
2023-12-24T18:04:22.576Z,100.00
2023-12-24T18:06:49.446Z,100.00
2023-12-24T18:09:16.246Z,100.00
2023-12-24T18:11:42.946Z,100.00
2023-12-24T18:14:09.851Z,100.00
2023-12-24T18:16:36.759Z,100.00
2023-12-24T18:19:03.997Z,100.00
2023-12-24T18:21:31.043Z,100.00
2023-12-24T18:23:58.012Z,100.00
2023-12-24T18:26:25.027Z,100.00
2023-12-24T18:28:52.728Z,100.00
2023-12-24T18:31:20.506Z,100.00
2023-12-24T18:33:47.280Z,100.00
2023-12-24T18:36:17.356Z,100.00
2023-12-24T18:38:47.904Z,100.00
2023-12-24T18:41:22.363Z,100.00
2023-12-24T18:43:49.573Z,100.00
2023-12-24T18:46:19.925Z,100.00
2023-12-24T18:48:47.338Z,100.00
2023-12-24T18:51:14.975Z,100.00
2023-12-24T18:53:42.233Z,100.00
2023-12-24T18:56:09.507Z,100.00
2023-12-24T18:58:37.420Z,100.00
2023-12-24T19:01:04.274Z,100.00
2023-12-24T19:03:31.089Z,100.00
2023-12-24T19:05:57.866Z,100.00
2023-12-24T19:08:24.669Z,100.00
2023-12-24T19:10:51.332Z,100.00
2023-12-24T19:13:18.151Z,100.00
2023-12-24T19:15:44.827Z,100.00
2023-12-24T19:18:11.628Z,100.00
2023-12-24T19:20:38.361Z,100.00
2023-12-24T19:23:05.109Z,100.00
2023-12-24T19:25:31.779Z,100.00
2023-12-24T19:27:58.510Z,100.00
2023-12-24T19:30:25.169Z,100.00
2023-12-24T19:32:52.419Z,100.00
2023-12-24T19:35:19.296Z,100.00
2023-12-24T19:37:46.045Z,100.00
2023-12-24T19:40:12.761Z,100.00
2023-12-24T19:42:39.783Z,100.00
2023-12-24T19:45:06.681Z,100.00
2023-12-24T19:47:33.512Z,100.00
2023-12-24T19:50:00.320Z,100.00
2023-12-24T19:52:36.085Z,100.00
2023-12-24T19:55:07.689Z,100.00
2023-12-24T19:57:34.470Z,100.00
2023-12-24T20:00:01.170Z,100.00
2023-12-24T20:02:28.309Z,100.00
2023-12-24T20:04:55.045Z,100.00
2023-12-24T20:07:21.781Z,100.00
2023-12-24T20:09:48.578Z,100.00
2023-12-24T20:12:15.382Z,100.00
2023-12-24T20:14:42.197Z,100.00
2023-12-24T20:17:08.982Z,100.00
2023-12-24T20:19:35.908Z,100.00
2023-12-24T20:22:02.678Z,100.00
2023-12-24T20:24:29.435Z,100.00
2023-12-24T20:26:56.266Z,100.00
2023-12-24T20:29:23.081Z,100.00
2023-12-24T20:31:49.772Z,100.00
2023-12-24T20:34:16.730Z,100.00
2023-12-24T20:36:44.183Z,100.00
2023-12-24T20:39:11.522Z,100.00
2023-12-24T20:41:42.327Z,100.00
2023-12-24T20:44:09.031Z,100.00
2023-12-24T20:46:35.708Z,100.00
2023-12-24T20:49:04.076Z,100.00
2023-12-24T20:51:31.121Z,100.00
2023-12-24T20:53:57.838Z,100.00
2023-12-24T20:56:24.850Z,100.00
2023-12-24T20:58:51.606Z,100.00
2023-12-24T21:01:21.598Z,100.00
2023-12-24T21:03:48.896Z,100.00
2023-12-24T21:06:15.954Z,100.00
2023-12-24T21:08:42.707Z,100.00
2023-12-24T21:11:09.459Z,100.00
2023-12-24T21:13:36.131Z,100.00
2023-12-24T21:16:03.306Z,100.00
2023-12-24T21:18:30.070Z,100.00
2023-12-24T21:20:59.746Z,100.00
2023-12-24T21:23:26.749Z,100.00
2023-12-24T21:25:53.513Z,100.00
2023-12-24T21:28:20.244Z,99.10
2023-12-24T21:30:46.959Z,98.21
2023-12-24T21:33:13.822Z,98.98
2023-12-24T21:35:40.542Z,99.44
2023-12-24T21:38:07.355Z,98.81
2023-12-24T21:40:33.974Z,99.08
2023-12-24T21:43:00.744Z,98.43
2023-12-24T21:45:27.377Z,97.96
2023-12-24T21:47:54.529Z,97.93
2023-12-24T21:50:21.367Z,96.95
2023-12-24T21:52:48.194Z,96.60
2023-12-24T21:55:14.913Z,96.14
2023-12-24T21:57:41.626Z,97.03
2023-12-24T22:00:11.408Z,98.37
2023-12-24T22:02:38.329Z,100.00
2023-12-24T22:05:05.108Z,100.00
2023-12-24T22:07:31.915Z,100.00
2023-12-24T22:09:58.575Z,100.00
2023-12-24T22:12:25.354Z,100.00
2023-12-24T22:14:52.148Z,100.00
2023-12-24T22:17:18.998Z,100.00
2023-12-24T22:19:45.720Z,100.00
2023-12-24T22:22:13.039Z,100.00
2023-12-24T22:24:39.961Z,100.00
2023-12-24T22:27:06.668Z,100.00
2023-12-24T22:29:36.816Z,100.00
2023-12-24T22:32:03.675Z,100.00
2023-12-24T22:34:30.409Z,100.00
2023-12-24T22:36:57.164Z,100.00
2023-12-24T22:39:23.842Z,100.00
2023-12-24T22:41:50.698Z,100.00
2023-12-24T22:44:17.442Z,100.00
2023-12-24T22:46:44.766Z,100.00
2023-12-24T22:49:11.563Z,100.00
2023-12-24T22:51:38.303Z,99.34
2023-12-24T22:54:04.944Z,98.82
2023-12-24T22:56:31.772Z,98.80
2023-12-24T22:58:58.428Z,98.40
2023-12-24T23:01:25.178Z,97.71
2023-12-24T23:03:51.938Z,98.47
2023-12-24T23:06:20.534Z,99.03
2023-12-24T23:08:47.284Z,97.82
2023-12-24T23:11:14.082Z,98.19
2023-12-24T23:13:40.858Z,98.94
2023-12-24T23:16:07.732Z,100.00
2023-12-24T23:18:34.615Z,100.00
2023-12-24T23:21:01.607Z,100.00
2023-12-24T23:23:28.461Z,100.00
2023-12-24T23:25:55.222Z,100.00
2023-12-24T23:28:21.908Z,100.00
2023-12-24T23:30:48.659Z,98.87
2023-12-24T23:33:15.446Z,99.28
2023-12-24T23:35:45.404Z,97.77
2023-12-24T23:38:14.411Z,99.25
2023-12-24T23:40:41.124Z,98.87
2023-12-24T23:43:07.810Z,98.46
2023-12-24T23:45:34.434Z,97.91
2023-12-24T23:48:02.506Z,97.09
2023-12-24T23:50:31.552Z,97.49
2023-12-24T23:52:58.377Z,96.81
2023-12-24T23:55:25.006Z,96.57
2023-12-24T23:57:51.939Z,95.09
